Nearby METAR Reports

 

KPRB - Paso Robles, California, USA
Distance from station: SW 1mi, 1km
Updated: 05/25/2016 12:53pm
Clear
Clear
 Wind from varies
Wind: varies 6 mph , 9 km/h
Temperature: 72°F , 22°C
Dew Point: 43°F , 6°C
Humidity: 36%
Barometer: 30.09 inHg , 1019 hPa
Clouds: Clear
Visibility: 10 miles , 16 km
2016/05/25 19:53 KPRB 251953Z AUTO VRB05KT 10SM CLR 22/06 A3009 RMK AO2 SLP183 T02220061 TSNO
KSBP - San Luis Obispo, California, USA
Distance from station: S 30mi, 49km
Updated: 05/25/2016 12:56pm
Partly cloudy
Partly cloudy
 Wind from NW
Wind: NW 16 mph , 26 km/h, Gust: 22 mph , 35 km/h
Temperature: 68°F , 20°C
Dew Point: 52°F , 11°C
Humidity: 56%
Barometer: 30.13 inHg , 1020.3 hPa
Clouds: Partly cloudy
Visibility: 10 miles , 16 km
Cloud details: Partly cloudy 2700 ft
2016/05/25 19:56 KSBP 251956Z 31014G19KT 10SM SCT027 20/11 A3013 RMK AO2 SLP202 T02000106
 
KSMX - Santa Maria, California, USA
Distance from station: S 54mi, 87km
Updated: 05/25/2016 12:51pm
Partly cloudy
Partly cloudy
 Wind from WNW
Wind: WNW 20 mph , 31 km/h, Gust: 24 mph , 39 km/h
Temperature: 63°F , 17°C
Dew Point: 50°F , 10°C
Humidity: 64%
Barometer: 30.14 inHg , 1020.7 hPa
Clouds: Partly cloudy
Visibility: 10 miles , 16 km
Cloud details: Partly cloudy 2300 ft
2016/05/25 19:51 KSMX 251951Z 29017G21KT 10SM SCT023 17/10 A3014 RMK AO2 SLP208 T01720100 $
KNLC - Lemoore Nas/Reev, California, USA
Distance from station: NE 58mi, 94km
Updated: 05/25/2016 12:56pm
Partly cloudy
Partly cloudy
 Wind from WNW
Wind: WNW 9 mph , 15 km/h, Gust: 16 mph , 26 km/h
Temperature: 73°F , 23°C
Dew Point: 45°F , 7°C
Humidity: 36%
Barometer: 30.06 inHg , 1017.9 hPa
Clouds: Partly cloudy
Visibility: 10 miles , 16 km
Cloud details: Few Clouds 3300 ft
Partly cloudy 21000 ft
2016/05/25 19:56 KNLC 251956Z 30008G14KT 260V340 10SM FEW033 SCT210 23/07 A3006 RMK AO2 SLP179 RH/33 T02330067
 
KVBG - Vandenberg Afb, California, USA
Distance from station: S 65mi, 105km
Updated: 05/25/2016 12:55pm
Mostly cloudy
Mostly cloudy
 Wind from NW
Wind: NW 21 mph , 33 km/h, Gust: 26 mph , 43 km/h
Temperature: 61°F , 16°C
Dew Point: 50°F , 10°C
Humidity: 68%
Barometer: 30.15 inHg , 1021 hPa
Clouds: Mostly cloudy
Visibility: 10 miles , 16 km
Cloud details: Partly cloudy 1700 ft
Mostly cloudy 2100 ft
Mostly cloudy 20000 ft
2016/05/25 19:55 KVBG 251955Z 32018G23KT 10SM SCT017 BKN021 BKN200 16/10 A3015 RMK AO2A SCT V BKN SLP214 T01610097
KLPC - Lompoc, California, USA
Distance from station: S 70mi, 113km
Updated: 05/25/2016 12:56pm
Mostly cloudy
Mostly cloudy
 Wind from NW
Wind: NW 15 mph , 24 km/h, Gust: 21 mph , 33 km/h
Temperature: 64°F , 18°C
Dew Point: 48°F , 9°C
Humidity: 56%
Barometer: 30.14 inHg , 1020.7 hPa
Clouds: Mostly cloudy
Visibility: 10 miles , 16 km
Cloud details: Mostly cloudy 2700 ft
2016/05/25 19:56 KLPC 251956Z AUTO 32013G18KT 10SM BKN027 18/09 A3014 RMK AO2 SLP210 T01830094
 
KHJO - Hanford, California, USA
Distance from station: NE 72mi, 116km
Updated: 05/25/2016 12:53pm
Clear
Clear
 Wind from WNW
Wind: WNW 9 mph , 15 km/h
Temperature: 75°F , 24°C
Dew Point: 45°F , 7°C
Humidity: 34%
Barometer: 30.06 inHg , 1017.9 hPa
Clouds: Clear
Visibility: 10 miles , 16 km
2016/05/25 19:53 KHJO 251953Z AUTO 30008KT 10SM CLR 24/07 A3006 RMK AO2 SLP181 T02390072